createdAt,value
2019-01-02T00:00:31.209Z,83.69
2019-01-02T00:01:31.199Z,84.73
2019-01-02T00:02:31.197Z,84.21
2019-01-02T00:03:31.242Z,84.83
2019-01-02T00:04:31.222Z,84.98
2019-01-02T00:05:31.163Z,85.08
2019-01-02T00:06:31.155Z,84.67
2019-01-02T00:07:31.133Z,84.88
2019-01-02T00:08:31.133Z,84.98
2019-01-02T00:09:31.114Z,85.39
2019-01-02T00:10:31.140Z,84.98
2019-01-02T00:11:31.116Z,85.08
2019-01-02T00:12:31.088Z,85.08
2019-01-02T00:13:31.090Z,84.67
2019-01-02T00:14:31.069Z,84.67
2019-01-02T00:15:31.057Z,85.29
2019-01-02T00:16:31.142Z,85.29
2019-01-02T00:17:31.074Z,84.98
2019-01-02T00:18:31.021Z,85.71
2019-01-02T00:19:31.026Z,85.29
2019-01-02T00:20:31.018Z,85.29
2019-01-02T00:21:30.989Z,84.77
2019-01-02T00:22:31.024Z,84.88
2019-01-02T00:23:30.978Z,84.36
2019-01-02T00:24:30.961Z,85.08
2019-01-02T00:25:30.950Z,84.05
2019-01-02T00:26:30.934Z,82.55
2019-01-02T00:27:30.929Z,82.14
2019-01-02T00:28:30.965Z,83.59
2019-01-02T00:29:30.897Z,83.80
2019-01-02T00:30:30.932Z,84.00
2019-01-02T00:31:30.880Z,83.80
2019-01-02T00:32:30.889Z,82.45
2019-01-02T00:33:30.859Z,83.63
2019-01-02T00:34:30.906Z,82.65
2019-01-02T00:35:30.848Z,81.97
2019-01-02T00:36:30.821Z,81.93
2019-01-02T00:37:30.806Z,81.10
2019-01-02T00:38:30.798Z,81.30
2019-01-02T00:39:30.792Z,80.68
2019-01-02T00:40:30.841Z,81.62
2019-01-02T00:41:30.766Z,80.68
2019-01-02T00:42:30.783Z,80.68
2019-01-02T00:43:30.746Z,81.20
2019-01-02T00:44:30.738Z,81.14
2019-01-02T00:45:30.724Z,80.99
2019-01-02T00:46:30.769Z,80.52
2019-01-02T00:47:30.700Z,80.00
2019-01-02T00:48:30.693Z,80.73
2019-01-02T00:49:30.677Z,80.83
2019-01-02T00:50:30.668Z,81.04
2019-01-02T00:51:30.664Z,81.24
2019-01-02T00:52:30.685Z,81.56
2019-01-02T00:53:30.660Z,81.35
2019-01-02T00:54:31.350Z,80.76
2019-01-02T00:55:30.616Z,81.45
2019-01-02T00:56:30.606Z,80.93
2019-01-02T00:57:30.590Z,81.70
2019-01-02T00:58:30.615Z,82.11
2019-01-02T00:59:30.566Z,82.32
2019-01-02T01:00:30.595Z,82.21
2019-01-02T01:01:30.556Z,81.07
2019-01-02T01:02:30.543Z,80.97
2019-01-02T01:03:30.540Z,81.07
2019-01-02T01:04:30.567Z,81.28
2019-01-02T01:05:30.510Z,82.21
2019-01-02T01:06:30.513Z,82.32
2019-01-02T01:07:30.484Z,80.87
2019-01-02T01:08:30.492Z,80.04
2019-01-02T01:09:30.465Z,81.07
2019-01-02T01:10:30.486Z,81.18
2019-01-02T01:11:30.446Z,81.49
2019-01-02T01:12:30.432Z,81.49
2019-01-02T01:13:30.453Z,80.66
2019-01-02T01:14:30.429Z,80.45
2019-01-02T01:15:30.415Z,80.73
2019-01-02T01:16:30.432Z,80.87
2019-01-02T01:17:30.374Z,80.76
2019-01-02T01:18:30.370Z,80.45
2019-01-02T01:19:30.365Z,79.58
2019-01-02T01:20:30.358Z,80.31
2019-01-02T01:21:30.424Z,80.62
2019-01-02T01:22:31.363Z,80.31
2019-01-02T01:23:30.319Z,79.69
2019-01-02T01:24:30.300Z,78.96
2019-01-02T01:25:30.287Z,80.21
2019-01-02T01:26:30.341Z,80.73
2019-01-02T01:27:30.271Z,80.93
2019-01-02T01:28:30.327Z,80.00
2019-01-02T01:29:30.254Z,80.73
2019-01-02T01:30:30.241Z,80.52
2019-01-02T01:31:30.222Z,80.41
2019-01-02T01:32:30.220Z,79.06
2019-01-02T01:33:30.235Z,79.69
2019-01-02T01:34:30.239Z,79.06
2019-01-02T01:35:30.183Z,79.48
2019-01-02T01:36:30.177Z,79.69
2019-01-02T01:37:30.163Z,78.96
2019-01-02T01:38:30.147Z,79.17
2019-01-02T01:39:30.153Z,79.06
2019-01-02T01:40:30.171Z,78.55
2019-01-02T01:41:30.123Z,78.96
2019-01-02T01:42:30.111Z,79.06
2019-01-02T01:43:30.097Z,79.06
2019-01-02T01:44:30.090Z,78.13
2019-01-02T01:45:30.081Z,78.75
2019-01-02T01:46:30.099Z,79.06
2019-01-02T01:47:30.057Z,78.96
2019-01-02T01:48:30.054Z,79.48
2019-01-02T01:49:30.038Z,79.38
2019-01-02T01:50:30.015Z,79.58
2019-01-02T01:51:30.014Z,79.06
2019-01-02T01:52:30.036Z,79.27
2019-01-02T01:53:30.024Z,78.86
2019-01-02T01:54:29.987Z,79.27
2019-01-02T01:55:29.963Z,79.06
2019-01-02T01:56:29.967Z,79.17
2019-01-02T01:57:29.943Z,79.17
2019-01-02T01:58:29.966Z,78.55
2019-01-02T01:59:29.940Z,79.06
2019-01-02T02:00:29.912Z,78.65
2019-01-02T02:01:29.902Z,78.65
2019-01-02T02:02:29.885Z,78.55
2019-01-02T02:03:29.886Z,79.38
2019-01-02T02:04:29.894Z,78.96
2019-01-02T02:05:29.866Z,79.27
2019-01-02T02:06:29.861Z,79.27
2019-01-02T02:07:29.838Z,79.48
2019-01-02T02:08:29.822Z,78.55
2019-01-02T02:09:29.809Z,78.65
2019-01-02T02:10:29.847Z,77.92
2019-01-02T02:11:29.790Z,78.44
2019-01-02T02:12:29.786Z,78.65
2019-01-02T02:13:29.772Z,77.92
2019-01-02T02:14:29.758Z,77.72
2019-01-02T02:15:29.752Z,77.61
2019-01-02T02:16:29.943Z,78.13
2019-01-02T02:17:29.727Z,78.65
2019-01-02T02:18:29.718Z,78.34
2019-01-02T02:19:29.762Z,78.65
2019-01-02T02:20:29.704Z,79.06
2019-01-02T02:21:29.723Z,78.99
2019-01-02T02:22:29.708Z,78.03
2019-01-02T02:23:29.695Z,78.37
2019-01-02T02:24:29.660Z,77.92
2019-01-02T02:25:29.640Z,78.13
2019-01-02T02:26:29.655Z,77.51
2019-01-02T02:27:29.619Z,77.82
2019-01-02T02:28:29.649Z,78.65
2019-01-02T02:29:29.612Z,78.34
2019-01-02T02:30:29.588Z,78.75
2019-01-02T02:31:29.612Z,77.61
2019-01-02T02:32:29.563Z,78.13
2019-01-02T02:33:29.552Z,78.44
2019-01-02T02:34:29.584Z,77.82
2019-01-02T02:35:29.528Z,78.13
2019-01-02T02:36:29.522Z,77.40
2019-01-02T02:37:29.515Z,77.40
2019-01-02T02:38:29.497Z,77.82
2019-01-02T02:39:29.490Z,77.82
2019-01-02T02:40:29.520Z,78.75
2019-01-02T02:41:29.468Z,78.68
2019-01-02T02:42:29.463Z,78.06
2019-01-02T02:43:29.449Z,78.68
2019-01-02T02:44:29.437Z,79.30
2019-01-02T02:45:29.439Z,78.37
2019-01-02T02:46:29.444Z,78.99
2019-01-02T02:47:29.401Z,78.89
2019-01-02T02:48:29.430Z,78.68
2019-01-02T02:49:29.381Z,79.51
2019-01-02T02:50:29.372Z,78.58
2019-01-02T02:51:29.363Z,78.86
2019-01-02T02:52:29.564Z,78.47
2019-01-02T02:53:29.336Z,78.47
2019-01-02T02:54:29.326Z,79.30
2019-01-02T02:55:29.318Z,79.20
2019-01-02T02:56:29.308Z,78.99
2019-01-02T02:57:29.294Z,79.61
2019-01-02T02:58:29.309Z,80.45
2019-01-02T02:59:29.282Z,79.41
2019-01-02T03:00:29.272Z,79.76
2019-01-02T03:01:29.247Z,80.38
2019-01-02T03:02:29.269Z,80.45
2019-01-02T03:03:29.225Z,80.35
2019-01-02T03:04:29.282Z,80.18
2019-01-02T03:05:29.224Z,80.38
2019-01-02T03:06:29.192Z,80.24
2019-01-02T03:07:29.181Z,80.76
2019-01-02T03:08:29.184Z,79.97
2019-01-02T03:09:29.161Z,80.66
2019-01-02T03:10:29.189Z,80.59
2019-01-02T03:11:29.138Z,79.93
2019-01-02T03:12:29.130Z,80.66
2019-01-02T03:13:29.117Z,79.93
2019-01-02T03:14:29.119Z,80.28
2019-01-02T03:15:29.092Z,80.28
2019-01-02T03:16:29.127Z,80.76
2019-01-02T03:17:29.072Z,80.87
2019-01-02T03:18:29.070Z,80.69
2019-01-02T03:19:29.049Z,80.49
2019-01-02T03:20:29.048Z,80.90
2019-01-02T03:21:29.030Z,81.18
2019-01-02T03:22:29.060Z,81.73
2019-01-02T03:23:29.007Z,80.97
2019-01-02T03:24:29.002Z,81.84
2019-01-02T03:25:28.997Z,80.87
2019-01-02T03:26:29.003Z,81.59
2019-01-02T03:27:28.969Z,82.35
2019-01-02T03:28:29.002Z,82.87
2019-01-02T03:29:28.946Z,82.35
2019-01-02T03:30:28.951Z,82.35
2019-01-02T03:31:28.936Z,80.97
2019-01-02T03:32:28.930Z,82.11
2019-01-02T03:33:28.907Z,82.32
2019-01-02T03:34:28.921Z,82.53
2019-01-02T03:35:28.880Z,82.32
2019-01-02T03:36:28.867Z,82.04
2019-01-02T03:37:28.858Z,82.35
2019-01-02T03:38:28.849Z,82.56
2019-01-02T03:39:28.886Z,82.04
2019-01-02T03:40:28.886Z,82.98
2019-01-02T03:41:28.833Z,82.01
2019-01-02T03:42:28.807Z,82.11
2019-01-02T03:43:28.809Z,82.01
2019-01-02T03:44:28.786Z,82.98
2019-01-02T03:45:28.771Z,82.32
2019-01-02T03:46:28.801Z,82.11
2019-01-02T03:47:28.746Z,82.25
2019-01-02T03:48:28.755Z,82.53
2019-01-02T03:49:28.729Z,81.18
2019-01-02T03:50:28.715Z,81.49
2019-01-02T03:51:28.712Z,81.28
2019-01-02T03:52:28.753Z,81.18
2019-01-02T03:53:28.682Z,80.73
2019-01-02T03:54:28.675Z,80.87
2019-01-02T03:55:28.660Z,80.87
2019-01-02T03:56:28.650Z,80.73
2019-01-02T03:57:28.646Z,80.41
2019-01-02T03:58:28.688Z,80.31
2019-01-02T03:59:28.624Z,80.76
2019-01-02T04:00:28.644Z,80.83
2019-01-02T04:01:28.649Z,80.93
2019-01-02T04:02:28.592Z,80.21
2019-01-02T04:03:28.585Z,80.76
2019-01-02T04:04:28.614Z,80.52
2019-01-02T04:05:28.565Z,80.41
2019-01-02T04:06:28.564Z,79.83
2019-01-02T04:07:28.606Z,80.31
2019-01-02T04:08:28.527Z,80.10
2019-01-02T04:09:28.513Z,79.69
2019-01-02T04:10:28.545Z,80.21
2019-01-02T04:11:28.503Z,80.00
2019-01-02T04:12:28.495Z,79.79
2019-01-02T04:13:28.468Z,80.21
2019-01-02T04:14:28.457Z,79.79
2019-01-02T04:15:28.457Z,79.38
2019-01-02T04:16:28.510Z,80.21
2019-01-02T04:17:28.437Z,80.21
2019-01-02T04:18:28.410Z,80.31
2019-01-02T04:19:28.397Z,79.90
2019-01-02T04:20:28.399Z,79.38
2019-01-02T04:21:28.377Z,79.58
2019-01-02T04:22:28.444Z,79.38
2019-01-02T04:23:28.370Z,79.79
2019-01-02T04:24:28.343Z,80.41
2019-01-02T04:25:28.335Z,80.41
2019-01-02T04:26:28.325Z,80.41
2019-01-02T04:27:28.316Z,79.79
2019-01-02T04:28:28.348Z,79.27
2019-01-02T04:29:28.302Z,80.41
2019-01-02T04:30:28.283Z,80.21
2019-01-02T04:31:28.268Z,79.69
2019-01-02T04:32:28.263Z,79.69
2019-01-02T04:33:28.266Z,79.69
2019-01-02T04:34:28.297Z,80.41
2019-01-02T04:35:28.227Z,79.69
2019-01-02T04:36:28.210Z,80.21
2019-01-02T04:37:28.202Z,79.69
2019-01-02T04:38:28.189Z,79.27
2019-01-02T04:39:28.186Z,79.69
2019-01-02T04:40:28.491Z,79.69
2019-01-02T04:41:28.173Z,80.73
2019-01-02T04:42:28.154Z,79.79
2019-01-02T04:43:28.141Z,80.62
2019-01-02T04:44:28.147Z,80.21
2019-01-02T04:45:28.127Z,80.31
2019-01-02T04:46:28.161Z,80.73
2019-01-02T04:47:28.099Z,80.73
2019-01-02T04:48:28.093Z,80.52
2019-01-02T04:49:28.080Z,80.21
2019-01-02T04:50:28.071Z,80.21
2019-01-02T04:51:28.080Z,80.41
2019-01-02T04:52:28.078Z,80.31
2019-01-02T04:53:28.031Z,80.10
2019-01-02T04:54:28.027Z,80.55
2019-01-02T04:55:28.023Z,80.31
2019-01-02T04:56:28.014Z,80.10
2019-01-02T04:57:27.991Z,80.31
2019-01-02T04:58:28.026Z,79.90
2019-01-02T04:59:28.000Z,80.41
2019-01-02T05:00:27.967Z,80.52
2019-01-02T05:01:27.952Z,80.62
2019-01-02T05:02:27.939Z,80.21
2019-01-02T05:03:27.933Z,80.21
2019-01-02T05:04:27.967Z,80.73
2019-01-02T05:05:27.919Z,79.79
2019-01-02T05:06:27.909Z,80.73
2019-01-02T05:07:27.877Z,80.83
2019-01-02T05:08:27.867Z,80.83
2019-01-02T05:09:27.857Z,80.62
2019-01-02T05:10:27.876Z,80.52
2019-01-02T05:11:27.856Z,80.62
2019-01-02T05:12:27.830Z,80.31
2019-01-02T05:13:27.846Z,80.00
2019-01-02T05:14:27.803Z,80.10
2019-01-02T05:15:27.791Z,80.21
2019-01-02T05:16:27.858Z,80.21
2019-01-02T05:17:27.768Z,80.41
2019-01-02T05:18:27.781Z,79.69
2019-01-02T05:19:27.747Z,80.41
2019-01-02T05:20:27.741Z,80.10
2019-01-02T05:21:27.726Z,80.21
2019-01-02T05:22:27.755Z,80.31
2019-01-02T05:23:27.739Z,80.41
2019-01-02T05:24:27.703Z,79.90
2019-01-02T05:25:27.682Z,81.04
2019-01-02T05:26:27.677Z,80.76
2019-01-02T05:27:27.661Z,80.73
2019-01-02T05:28:27.679Z,79.79
2019-01-02T05:29:27.639Z,80.10
2019-01-02T05:30:27.689Z,80.73
2019-01-02T05:31:27.621Z,80.73
2019-01-02T05:32:27.607Z,80.10
2019-01-02T05:33:27.610Z,81.14
2019-01-02T05:34:27.650Z,80.93
2019-01-02T05:35:27.578Z,80.62
2019-01-02T05:36:27.562Z,80.83
2019-01-02T05:37:27.578Z,81.07
2019-01-02T05:38:27.542Z,80.73
2019-01-02T05:39:27.528Z,80.83
2019-01-02T05:40:27.602Z,81.49
2019-01-02T05:41:27.512Z,82.39
2019-01-02T05:42:27.503Z,81.87
2019-01-02T05:43:27.489Z,81.70
2019-01-02T05:44:27.494Z,82.42
2019-01-02T05:45:27.469Z,81.59
2019-01-02T05:46:27.487Z,80.41
2019-01-02T05:47:27.444Z,80.00
2019-01-02T05:48:27.437Z,80.83
2019-01-02T05:49:27.422Z,80.62
2019-01-02T05:50:27.427Z,81.24
2019-01-02T05:51:27.401Z,81.35
2019-01-02T05:52:27.433Z,82.42
2019-01-02T05:53:27.385Z,82.63
2019-01-02T05:54:27.382Z,82.01
2019-01-02T05:55:27.355Z,82.32
2019-01-02T05:56:27.350Z,82.42
2019-01-02T05:57:27.341Z,81.49
2019-01-02T05:58:27.373Z,81.07
2019-01-02T05:59:27.316Z,81.70
2019-01-02T06:00:27.316Z,81.07
2019-01-02T06:01:27.308Z,82.63
2019-01-02T06:02:27.289Z,81.70
2019-01-02T06:03:27.267Z,80.66
2019-01-02T06:04:27.307Z,81.70
2019-01-02T06:05:27.246Z,81.49
2019-01-02T06:06:27.239Z,82.21
2019-01-02T06:07:27.233Z,80.97
2019-01-02T06:08:27.245Z,81.49
2019-01-02T06:09:27.207Z,81.18
2019-01-02T06:10:27.562Z,82.53
2019-01-02T06:11:27.185Z,81.28
2019-01-02T06:12:27.172Z,81.07
2019-01-02T06:13:27.171Z,81.18
2019-01-02T06:14:27.159Z,81.52
2019-01-02T06:15:27.136Z,82.21
2019-01-02T06:16:27.174Z,81.38
2019-01-02T06:17:27.120Z,81.70
2019-01-02T06:18:27.106Z,81.01
2019-01-02T06:19:27.097Z,81.21
2019-01-02T06:20:27.087Z,81.52
2019-01-02T06:21:27.080Z,82.11
2019-01-02T06:22:27.281Z,82.42
2019-01-02T06:23:27.130Z,82.15
2019-01-02T06:24:27.045Z,82.46
2019-01-02T06:25:27.040Z,82.35
2019-01-02T06:26:27.023Z,82.35
2019-01-02T06:27:27.035Z,82.81
2019-01-02T06:28:27.060Z,82.46
2019-01-02T06:29:26.994Z,83.64
2019-01-02T06:30:26.977Z,82.60
2019-01-02T06:31:26.964Z,82.15
2019-01-02T06:32:26.962Z,82.35
2019-01-02T06:33:26.943Z,82.67
2019-01-02T06:34:26.993Z,82.56
2019-01-02T06:35:26.926Z,82.25
2019-01-02T06:36:27.203Z,82.46
2019-01-02T06:37:26.903Z,82.04
2019-01-02T06:38:26.890Z,82.25
2019-01-02T06:39:26.883Z,82.56
2019-01-02T06:40:26.916Z,82.46
2019-01-02T06:41:26.863Z,82.35
2019-01-02T06:42:26.867Z,83.60
2019-01-02T06:43:26.849Z,83.43
2019-01-02T06:44:26.837Z,84.12
2019-01-02T06:45:26.811Z,84.27
2019-01-02T06:46:26.865Z,84.74
2019-01-02T06:47:26.807Z,85.10
2019-01-02T06:48:26.794Z,84.47
2019-01-02T06:49:26.793Z,84.68
2019-01-02T06:50:26.757Z,84.68
2019-01-02T06:51:26.791Z,84.64
2019-01-02T06:52:26.781Z,84.53
2019-01-02T06:53:26.741Z,84.78
2019-01-02T06:54:26.718Z,84.99
2019-01-02T06:55:26.722Z,84.68
2019-01-02T06:56:26.701Z,84.78
2019-01-02T06:57:26.686Z,85.30
2019-01-02T06:58:27.008Z,84.99
2019-01-02T06:59:26.676Z,85.10
2019-01-02T07:00:26.661Z,84.78
2019-01-02T07:01:26.654Z,84.95
2019-01-02T07:02:26.628Z,85.10
2019-01-02T07:03:26.633Z,84.99
2019-01-02T07:04:26.635Z,84.58
2019-01-02T07:05:26.620Z,84.05
2019-01-02T07:06:26.608Z,84.16
2019-01-02T07:07:31.181Z,84.05
2019-01-02T07:08:26.570Z,84.47
2019-01-02T07:09:26.564Z,84.16
2019-01-02T07:10:26.593Z,84.16
2019-01-02T07:11:26.553Z,83.74
2019-01-02T07:12:26.522Z,83.95
2019-01-02T07:13:26.519Z,83.64
2019-01-02T07:14:26.534Z,84.27
2019-01-02T07:15:26.490Z,84.16
2019-01-02T07:16:26.547Z,84.16
2019-01-02T07:17:26.469Z,84.47
2019-01-02T07:18:26.466Z,83.74
2019-01-02T07:19:26.458Z,83.84
2019-01-02T07:20:26.441Z,84.05
2019-01-02T07:21:26.424Z,83.95
2019-01-02T07:22:26.463Z,84.27
2019-01-02T07:23:26.483Z,85.10
2019-01-02T07:24:26.398Z,85.03
2019-01-02T07:25:26.383Z,84.68
2019-01-02T07:26:26.387Z,84.61
2019-01-02T07:27:26.372Z,85.41
2019-01-02T07:28:26.398Z,85.44
2019-01-02T07:29:26.340Z,85.55
2019-01-02T07:30:26.357Z,85.44
2019-01-02T07:31:26.328Z,85.96
2019-01-02T07:32:26.317Z,85.65
2019-01-02T07:33:26.296Z,86.07
2019-01-02T07:34:26.324Z,85.86
2019-01-02T07:35:26.293Z,86.27
2019-01-02T07:36:26.260Z,86.27
2019-01-02T07:37:27.017Z,86.27
2019-01-02T07:38:26.315Z,86.07
2019-01-02T07:39:26.236Z,85.96
2019-01-02T07:40:26.398Z,86.07
2019-01-02T07:41:26.231Z,85.93
2019-01-02T07:42:26.199Z,86.49
2019-01-02T07:43:26.201Z,86.27
2019-01-02T07:44:26.174Z,85.75
2019-01-02T07:45:26.180Z,85.75
2019-01-02T07:46:26.200Z,85.75
2019-01-02T07:47:26.138Z,85.24
2019-01-02T07:48:26.148Z,85.65
2019-01-02T07:49:26.123Z,85.82
2019-01-02T07:50:26.120Z,85.65
2019-01-02T07:51:26.107Z,85.75
2019-01-02T07:52:26.192Z,85.93
2019-01-02T07:53:26.077Z,86.03
2019-01-02T07:54:26.068Z,85.82
2019-01-02T07:55:26.088Z,85.41
2019-01-02T07:56:26.060Z,85.30
2019-01-02T07:57:26.111Z,85.30
2019-01-02T07:58:26.057Z,85.72
2019-01-02T07:59:26.030Z,86.55
2019-01-02T08:00:26.017Z,86.96
2019-01-02T08:01:25.995Z,87.27
2019-01-02T08:02:25.995Z,87.63
2019-01-02T08:03:25.974Z,87.32
2019-01-02T08:04:26.024Z,88.25
2019-01-02T08:05:25.956Z,88.04
2019-01-02T08:06:25.957Z,88.25
2019-01-02T08:07:25.962Z,88.98
2019-01-02T08:08:25.918Z,88.98
2019-01-02T08:09:25.903Z,89.04
2019-01-02T08:10:27.372Z,89.56
2019-01-02T08:11:25.900Z,89.56
2019-01-02T08:12:25.876Z,89.04
2019-01-02T08:13:25.880Z,89.60
2019-01-02T08:14:25.853Z,89.81
2019-01-02T08:15:25.865Z,89.60
2019-01-02T08:16:25.860Z,89.39
2019-01-02T08:17:25.813Z,89.67
2019-01-02T08:18:25.802Z,89.25
2019-01-02T08:19:25.829Z,89.36
2019-01-02T08:20:25.784Z,89.46
2019-01-02T08:21:25.776Z,89.46
2019-01-02T08:22:25.814Z,88.94
2019-01-02T08:23:25.755Z,88.31
2019-01-02T08:24:25.741Z,87.86
2019-01-02T08:25:25.747Z,87.24
2019-01-02T08:26:25.728Z,87.34
2019-01-02T08:27:25.738Z,87.86
2019-01-02T08:28:25.751Z,87.65
2019-01-02T08:29:25.696Z,88.07
2019-01-02T08:30:25.675Z,87.45
2019-01-02T08:31:25.663Z,87.65
2019-01-02T08:32:25.653Z,88.02
2019-01-02T08:33:25.660Z,87.03
2019-01-02T08:34:25.698Z,86.78
2019-01-02T08:35:25.649Z,87.61
2019-01-02T08:36:25.656Z,87.40
2019-01-02T08:37:25.614Z,87.09
2019-01-02T08:38:25.613Z,87.19
2019-01-02T08:39:25.577Z,86.78
2019-01-02T08:40:25.738Z,86.68
2019-01-02T08:41:25.582Z,86.68
2019-01-02T08:42:25.555Z,86.57
2019-01-02T08:43:25.533Z,86.93
2019-01-02T08:44:25.529Z,86.88
2019-01-02T08:45:25.519Z,86.99
2019-01-02T08:46:25.736Z,87.30
2019-01-02T08:47:25.510Z,86.72
2019-01-02T08:48:25.509Z,86.61
2019-01-02T08:49:25.476Z,86.99
2019-01-02T08:50:25.459Z,86.57
2019-01-02T08:51:25.490Z,86.99
2019-01-02T08:52:25.473Z,87.40
2019-01-02T08:53:25.437Z,86.78
2019-01-02T08:54:25.432Z,86.78
2019-01-02T08:55:25.415Z,86.88
2019-01-02T08:56:25.415Z,86.78
2019-01-02T08:57:25.447Z,86.68
2019-01-02T08:58:25.434Z,86.47
2019-01-02T08:59:25.369Z,86.47
2019-01-02T09:00:25.382Z,86.57
2019-01-02T09:01:25.352Z,86.36
2019-01-02T09:02:25.379Z,86.36
2019-01-02T09:03:25.320Z,86.57
2019-01-02T09:04:25.367Z,86.68
2019-01-02T09:05:25.296Z,86.47
2019-01-02T09:06:25.281Z,86.47
2019-01-02T09:07:25.293Z,86.05
2019-01-02T09:08:25.259Z,86.05
2019-01-02T09:09:25.259Z,86.36
2019-01-02T09:10:25.431Z,86.99
2019-01-02T09:11:25.227Z,86.68
2019-01-02T09:12:25.217Z,86.36
2019-01-02T09:13:25.212Z,86.78
2019-01-02T09:14:25.218Z,86.57
2019-01-02T09:15:25.188Z,86.99
2019-01-02T09:16:25.220Z,86.99
2019-01-02T09:17:25.170Z,86.68
2019-01-02T09:18:25.159Z,86.68
2019-01-02T09:19:25.160Z,86.64
2019-01-02T09:20:25.129Z,86.78
2019-01-02T09:21:25.122Z,86.26
2019-01-02T09:22:25.146Z,86.43
2019-01-02T09:23:25.102Z,86.64
2019-01-02T09:24:25.089Z,86.85
2019-01-02T09:25:25.094Z,86.05
2019-01-02T09:26:25.071Z,86.74
2019-01-02T09:27:25.058Z,86.74
2019-01-02T09:28:25.083Z,86.33
2019-01-02T09:29:25.033Z,86.33
2019-01-02T09:30:25.020Z,85.95
2019-01-02T09:31:25.031Z,86.33
2019-01-02T09:32:25.002Z,86.33
2019-01-02T09:33:24.987Z,86.43
2019-01-02T09:34:25.038Z,85.81
2019-01-02T09:35:24.965Z,85.29
2019-01-02T09:36:24.971Z,85.60
2019-01-02T09:37:24.987Z,86.12
2019-01-02T09:38:24.940Z,86.18
2019-01-02T09:39:24.928Z,85.50
2019-01-02T09:40:25.009Z,85.66
2019-01-02T09:41:24.908Z,85.77
2019-01-02T09:42:24.898Z,85.46
2019-01-02T09:43:24.892Z,85.56
2019-01-02T09:44:24.880Z,86.18
2019-01-02T09:45:24.858Z,85.87
2019-01-02T09:46:24.952Z,85.87
2019-01-02T09:47:24.944Z,86.29
2019-01-02T09:48:24.838Z,85.46
2019-01-02T09:49:24.820Z,85.46
2019-01-02T09:50:24.806Z,85.25
2019-01-02T09:51:24.801Z,85.46
2019-01-02T09:52:24.835Z,85.25
2019-01-02T09:53:24.778Z,84.94
2019-01-02T09:54:24.765Z,85.25
2019-01-02T09:55:24.774Z,85.56
2019-01-02T09:56:24.747Z,86.18
2019-01-02T09:57:24.731Z,85.25
2019-01-02T09:58:24.769Z,85.97
2019-01-02T09:59:24.720Z,85.87
2019-01-02T10:00:24.699Z,85.46
2019-01-02T10:01:24.692Z,85.25
2019-01-02T10:02:24.672Z,85.46
2019-01-02T10:03:24.665Z,85.46
2019-01-02T10:04:24.716Z,85.97
2019-01-02T10:05:24.642Z,86.08
2019-01-02T10:06:24.653Z,86.08
2019-01-02T10:07:24.623Z,86.18
2019-01-02T10:08:24.607Z,86.70
2019-01-02T10:09:24.597Z,86.39
2019-01-02T10:10:24.627Z,86.55
2019-01-02T10:11:24.606Z,86.29
2019-01-02T10:12:24.567Z,86.29
2019-01-02T10:13:24.566Z,85.97
2019-01-02T10:14:24.549Z,85.94
2019-01-02T10:15:24.547Z,85.31
2019-01-02T10:16:24.572Z,85.66
2019-01-02T10:17:24.533Z,85.21
2019-01-02T10:18:24.515Z,85.42
2019-01-02T10:19:24.489Z,86.04
2019-01-02T10:20:24.484Z,85.73
2019-01-02T10:21:24.471Z,85.52
2019-01-02T10:22:24.628Z,85.63
2019-01-02T10:23:24.492Z,85.83
2019-01-02T10:24:24.437Z,85.73
2019-01-02T10:25:24.432Z,86.04
2019-01-02T10:26:24.437Z,85.94
2019-01-02T10:27:24.409Z,85.52
2019-01-02T10:28:24.427Z,85.94
2019-01-02T10:29:24.415Z,86.25
2019-01-02T10:30:24.385Z,86.21
2019-01-02T10:31:24.359Z,86.00
2019-01-02T10:32:24.408Z,86.04
2019-01-02T10:33:24.348Z,85.83
2019-01-02T10:34:24.451Z,85.83
2019-01-02T10:35:24.321Z,85.94
2019-01-02T10:36:24.319Z,86.31
2019-01-02T10:37:24.362Z,86.35
2019-01-02T10:38:24.302Z,86.10
2019-01-02T10:39:24.283Z,86.21
2019-01-02T10:40:24.397Z,85.06
2019-01-02T10:41:24.268Z,85.69
2019-01-02T10:42:24.257Z,85.79
2019-01-02T10:43:24.262Z,85.89
2019-01-02T10:44:24.231Z,85.89
2019-01-02T10:45:24.210Z,85.89
2019-01-02T10:46:24.233Z,86.10
2019-01-02T10:47:24.214Z,84.96
2019-01-02T10:48:24.186Z,85.55
2019-01-02T10:49:24.166Z,85.13
2019-01-02T10:50:24.216Z,85.03
2019-01-02T10:51:24.167Z,85.34
2019-01-02T10:52:24.192Z,85.55
2019-01-02T10:53:24.122Z,85.44
2019-01-02T10:54:24.124Z,85.03
2019-01-02T10:55:24.118Z,84.61
2019-01-02T10:56:24.095Z,84.72
2019-01-02T10:57:24.082Z,84.61
2019-01-02T10:58:24.100Z,85.13
2019-01-02T10:59:24.079Z,84.99
2019-01-02T11:00:24.081Z,84.68
2019-01-02T11:01:24.038Z,84.06
2019-01-02T11:02:24.033Z,82.95
2019-01-02T11:03:24.028Z,84.30
2019-01-02T11:04:24.172Z,83.78
2019-01-02T11:05:24.020Z,84.61
2019-01-02T11:06:23.988Z,84.37
2019-01-02T11:07:23.988Z,84.78
2019-01-02T11:08:23.962Z,83.95
2019-01-02T11:09:23.954Z,83.89
2019-01-02T11:10:24.018Z,84.09
2019-01-02T11:11:23.949Z,84.09
2019-01-02T11:12:23.933Z,84.51
2019-01-02T11:13:23.952Z,84.82
2019-01-02T11:14:23.904Z,84.41
2019-01-02T11:15:23.926Z,84.82
2019-01-02T11:16:23.916Z,85.48
2019-01-02T11:17:23.883Z,85.79
2019-01-02T11:18:23.907Z,85.69
2019-01-02T11:19:23.846Z,85.48
2019-01-02T11:20:23.833Z,84.92
2019-01-02T11:21:23.829Z,84.72
2019-01-02T11:22:23.851Z,84.92
2019-01-02T11:23:23.887Z,85.19
2019-01-02T11:24:23.966Z,84.27
2019-01-02T11:25:23.777Z,83.85
2019-01-02T11:26:23.767Z,83.91
2019-01-02T11:27:23.777Z,81.74
2019-01-02T11:28:23.778Z,81.91
2019-01-02T11:29:23.740Z,81.91
2019-01-02T11:30:23.744Z,80.84
2019-01-02T11:31:23.748Z,80.74
2019-01-02T11:32:23.754Z,80.88
2019-01-02T11:33:23.697Z,80.36
2019-01-02T11:34:23.712Z,80.15
2019-01-02T11:35:23.673Z,80.36
2019-01-02T11:36:23.873Z,80.19
2019-01-02T11:37:23.648Z,80.50
2019-01-02T11:38:23.642Z,82.22
2019-01-02T11:39:23.654Z,81.12
2019-01-02T11:40:23.716Z,81.33
2019-01-02T11:41:23.603Z,80.91
2019-01-02T11:42:23.609Z,82.05
2019-01-02T11:43:23.582Z,81.84
2019-01-02T11:44:23.570Z,81.74
2019-01-02T11:45:24.578Z,81.64
2019-01-02T11:46:23.605Z,79.88
2019-01-02T11:47:23.558Z,81.12
2019-01-02T11:48:23.556Z,81.12
2019-01-02T11:49:23.526Z,80.50
2019-01-02T11:50:23.596Z,80.71
2019-01-02T11:51:23.505Z,80.40
2019-01-02T11:52:23.531Z,81.33
2019-01-02T11:53:23.481Z,81.95
2019-01-02T11:54:23.472Z,81.43
2019-01-02T11:55:23.452Z,81.95
2019-01-02T11:56:23.445Z,81.78
2019-01-02T11:57:23.431Z,81.16
2019-01-02T11:58:23.473Z,80.71
2019-01-02T11:59:23.426Z,80.54
2019-01-02T12:00:23.423Z,80.43
2019-01-02T12:01:23.388Z,79.50
2019-01-02T12:02:23.381Z,79.60
2019-01-02T12:03:23.365Z,80.50
2019-01-02T12:04:23.386Z,80.40
2019-01-02T12:05:23.341Z,80.19
2019-01-02T12:06:23.343Z,79.98
2019-01-02T12:07:23.331Z,79.57
2019-01-02T12:08:23.314Z,78.81
2019-01-02T12:09:23.300Z,79.33
2019-01-02T12:10:23.324Z,79.43
2019-01-02T12:11:23.283Z,79.94
2019-01-02T12:12:23.291Z,79.43
2019-01-02T12:13:23.259Z,78.91
2019-01-02T12:14:23.254Z,79.77
2019-01-02T12:15:23.239Z,79.77
2019-01-02T12:16:23.259Z,80.91
2019-01-02T12:17:23.213Z,80.71
2019-01-02T12:18:23.207Z,81.47
2019-01-02T12:19:23.190Z,80.85
2019-01-02T12:20:23.180Z,80.85
2019-01-02T12:21:23.168Z,82.09
2019-01-02T12:22:23.203Z,81.99
2019-01-02T12:23:23.145Z,82.19
2019-01-02T12:24:23.146Z,83.64
2019-01-02T12:25:23.135Z,83.99
2019-01-02T12:26:23.125Z,83.78
2019-01-02T12:27:23.101Z,83.68
2019-01-02T12:28:23.142Z,84.41
2019-01-02T12:29:23.091Z,84.41
2019-01-02T12:30:23.069Z,83.68
2019-01-02T12:31:23.061Z,83.78
2019-01-02T12:32:23.071Z,83.26
2019-01-02T12:33:23.048Z,83.37
2019-01-02T12:34:23.157Z,83.44
2019-01-02T12:35:23.032Z,84.41
2019-01-02T12:36:23.027Z,83.78
2019-01-02T12:37:22.994Z,84.37
2019-01-02T12:38:23.001Z,83.37
2019-01-02T12:39:22.978Z,84.41
2019-01-02T12:40:22.991Z,83.99
2019-01-02T12:41:22.963Z,82.75
2019-01-02T12:42:22.959Z,83.44
2019-01-02T12:43:22.930Z,83.89
2019-01-02T12:44:22.921Z,83.58
2019-01-02T12:45:22.913Z,83.68
2019-01-02T12:46:22.959Z,83.58
2019-01-02T12:47:22.886Z,83.06
2019-01-02T12:48:22.876Z,83.02
2019-01-02T12:49:22.873Z,82.29
2019-01-02T12:50:22.854Z,83.02
2019-01-02T12:51:22.850Z,82.05
2019-01-02T12:52:22.911Z,81.33